createdAt,value
2018-09-10T00:00:27.539Z,58.51
2018-09-10T00:02:56.070Z,58.53
2018-09-10T00:05:24.628Z,58.67
2018-09-10T00:07:53.900Z,58.75
2018-09-10T00:10:22.559Z,58.75
2018-09-10T00:12:51.131Z,58.59
2018-09-10T00:15:19.808Z,59.05
2018-09-10T00:17:48.372Z,58.84
2018-09-10T00:20:16.951Z,58.72
2018-09-10T00:22:45.632Z,59.27
2018-09-10T00:25:14.195Z,59.19
2018-09-10T00:27:42.745Z,58.56
2018-09-10T00:30:11.667Z,58.43
2018-09-10T00:32:40.214Z,58.82
2018-09-10T00:35:08.787Z,58.73
2018-09-10T00:37:37.627Z,58.49
2018-09-10T00:40:06.218Z,58.67
2018-09-10T00:42:34.842Z,58.48
2018-09-10T00:45:03.635Z,58.34
2018-09-10T00:47:32.227Z,58.90
2018-09-10T00:50:00.788Z,59.66
2018-09-10T00:52:29.368Z,58.77
2018-09-10T00:54:57.911Z,59.26
2018-09-10T00:57:26.465Z,59.46
2018-09-10T00:59:55.120Z,59.61
2018-09-10T01:02:23.683Z,59.72
2018-09-10T01:04:52.242Z,59.79
2018-09-10T01:07:20.920Z,60.34
2018-09-10T01:09:49.459Z,60.37
2018-09-10T01:12:18.028Z,60.29
2018-09-10T01:14:46.611Z,60.54
2018-09-10T01:17:15.163Z,60.68
2018-09-10T01:19:43.763Z,61.04
2018-09-10T01:22:12.424Z,60.69
2018-09-10T01:24:40.972Z,60.49
2018-09-10T01:27:09.537Z,61.04
2018-09-10T01:29:38.419Z,61.11
2018-09-10T01:32:06.970Z,61.04
2018-09-10T01:34:40.783Z,61.64
2018-09-10T01:37:09.335Z,61.31
2018-09-10T01:39:37.879Z,61.72
2018-09-10T01:42:06.860Z,61.45
2018-09-10T01:44:35.392Z,61.66
2018-09-10T01:47:03.948Z,61.35
2018-09-10T01:49:32.632Z,61.28
2018-09-10T01:52:01.187Z,61.78
2018-09-10T01:54:29.739Z,61.66
2018-09-10T01:56:58.307Z,61.46
2018-09-10T01:59:26.860Z,61.56
2018-09-10T02:01:55.412Z,61.26
2018-09-10T02:04:23.995Z,60.35
2018-09-10T02:06:52.567Z,60.97
2018-09-10T02:09:21.127Z,60.27
2018-09-10T02:11:49.807Z,60.43
2018-09-10T02:14:18.432Z,60.18
2018-09-10T02:16:46.999Z,59.71
2018-09-10T02:19:15.576Z,59.82
2018-09-10T02:21:44.119Z,59.59
2018-09-10T02:24:12.739Z,59.28
2018-09-10T02:26:41.701Z,59.83
2018-09-10T02:29:10.306Z,59.73
2018-09-10T02:31:38.887Z,59.71
2018-09-10T02:34:07.475Z,59.79
2018-09-10T02:36:36.027Z,60.14
2018-09-10T02:39:05.876Z,60.09
2018-09-10T02:41:39.203Z,60.05
2018-09-10T02:44:07.772Z,60.03
2018-09-10T02:46:36.340Z,60.35
2018-09-10T02:49:05.088Z,60.52
2018-09-10T02:51:33.679Z,60.13
2018-09-10T02:54:02.228Z,60.55
2018-09-10T02:56:30.861Z,60.02
2018-09-10T02:58:59.839Z,60.11
2018-09-10T03:01:28.423Z,60.19
2018-09-10T03:03:57.208Z,60.35
2018-09-10T03:06:25.819Z,60.37
2018-09-10T03:08:54.362Z,60.92
2018-09-10T03:11:22.937Z,60.58
2018-09-10T03:13:51.551Z,60.73
2018-09-10T03:16:20.103Z,61.01
2018-09-10T03:18:48.739Z,60.86
2018-09-10T03:21:17.299Z,61.01
2018-09-10T03:23:45.869Z,61.16
2018-09-10T03:26:14.451Z,62.07
2018-09-10T03:28:43.016Z,61.75
2018-09-10T03:31:11.568Z,61.88
2018-09-10T03:33:40.262Z,62.01
2018-09-10T03:36:08.759Z,61.94
2018-09-10T03:38:37.312Z,62.04
2018-09-10T03:41:05.972Z,61.88
2018-09-10T03:43:34.528Z,62.17
2018-09-10T03:46:03.079Z,62.16
2018-09-10T03:48:31.656Z,62.28
2018-09-10T03:51:00.223Z,62.63
2018-09-10T03:53:28.776Z,62.19
2018-09-10T03:55:57.372Z,61.49
2018-09-10T03:58:25.923Z,61.56
2018-09-10T04:00:54.483Z,61.68
2018-09-10T04:03:23.062Z,61.92
2018-09-10T04:05:51.619Z,61.63
2018-09-10T04:08:20.163Z,61.47
2018-09-10T04:10:48.743Z,61.01
2018-09-10T04:13:17.336Z,61.12
2018-09-10T04:15:45.887Z,61.01
2018-09-10T04:18:14.943Z,61.14
2018-09-10T04:20:43.488Z,61.44
2018-09-10T04:23:12.055Z,61.40
2018-09-10T04:25:40.631Z,61.22
2018-09-10T04:28:09.175Z,61.12
2018-09-10T04:30:37.732Z,60.92
2018-09-10T04:33:06.388Z,61.20
2018-09-10T04:35:34.939Z,61.32
2018-09-10T04:38:03.492Z,60.83
2018-09-10T04:40:32.131Z,61.13
2018-09-10T04:43:00.684Z,60.70
2018-09-10T04:45:29.236Z,60.51
2018-09-10T04:47:57.900Z,60.85
2018-09-10T04:50:26.449Z,60.90
2018-09-10T04:52:55.024Z,60.55
2018-09-10T04:55:23.672Z,60.78
2018-09-10T04:57:52.335Z,60.91
2018-09-10T05:00:20.900Z,61.11
2018-09-10T05:02:49.568Z,60.86
2018-09-10T05:05:18.137Z,61.13
2018-09-10T05:07:46.718Z,61.14
2018-09-10T05:10:15.392Z,60.90
2018-09-10T05:12:43.944Z,60.74
2018-09-10T05:15:12.494Z,60.56
2018-09-10T05:17:41.367Z,60.79
2018-09-10T05:20:09.924Z,60.84
2018-09-10T05:22:38.682Z,60.61
2018-09-10T05:25:07.641Z,60.65
2018-09-10T05:27:36.183Z,60.40
2018-09-10T05:30:04.805Z,59.67
2018-09-10T05:32:33.692Z,59.83
2018-09-10T05:35:02.230Z,59.82
2018-09-10T05:37:30.791Z,59.15
2018-09-10T05:39:59.647Z,58.90
2018-09-10T05:42:28.211Z,58.92
2018-09-10T05:44:56.770Z,58.32
2018-09-10T05:47:25.399Z,58.09
2018-09-10T05:49:53.992Z,56.85
2018-09-10T05:52:22.539Z,57.00
2018-09-10T05:54:51.131Z,56.27
2018-09-10T05:57:19.680Z,55.94
2018-09-10T05:59:48.252Z,55.27
2018-09-10T06:02:16.945Z,55.31
2018-09-10T06:04:45.603Z,54.48
2018-09-10T06:07:14.155Z,53.78
2018-09-10T06:09:43.177Z,52.76
2018-09-10T06:12:11.731Z,52.46
2018-09-10T06:14:40.284Z,51.71
2018-09-10T06:17:08.880Z,51.19
2018-09-10T06:19:37.421Z,50.91
2018-09-10T06:22:06.268Z,50.30
2018-09-10T06:24:34.876Z,49.74
2018-09-10T06:27:03.432Z,49.90
2018-09-10T06:29:31.992Z,49.47
2018-09-10T06:32:00.580Z,48.89
2018-09-10T06:34:29.200Z,48.44
2018-09-10T06:36:57.771Z,47.61
2018-09-10T06:39:26.360Z,46.52
2018-09-10T06:41:54.922Z,46.88
2018-09-10T06:44:23.480Z,45.88
2018-09-10T06:46:52.299Z,45.51
2018-09-10T06:49:20.864Z,44.91
2018-09-10T06:51:49.431Z,44.89
2018-09-10T06:54:18.117Z,44.87
2018-09-10T06:56:46.663Z,45.75
2018-09-10T06:59:15.211Z,45.64
2018-09-10T07:01:43.880Z,45.41
2018-09-10T07:04:12.423Z,45.88
2018-09-10T07:06:40.963Z,45.59
2018-09-10T07:09:10.703Z,45.24
2018-09-10T07:11:39.795Z,45.27
2018-09-10T07:14:08.747Z,44.40
2018-09-10T07:16:37.399Z,42.95
2018-09-10T07:19:06.047Z,43.00
2018-09-10T07:21:34.560Z,41.85
2018-09-10T07:24:03.239Z,41.79
2018-09-10T07:26:31.800Z,40.90
2018-09-10T07:29:00.361Z,40.17
2018-09-10T07:31:28.971Z,40.62
2018-09-10T07:33:57.536Z,40.94
2018-09-10T07:36:26.096Z,40.66
2018-09-10T07:38:54.763Z,40.69
2018-09-10T07:41:23.332Z,39.10
2018-09-10T07:43:52.005Z,38.17
2018-09-10T07:46:21.099Z,36.93
2018-09-10T07:48:49.702Z,36.74
2018-09-10T07:51:18.234Z,36.02
2018-09-10T07:53:46.851Z,35.08
2018-09-10T07:56:15.412Z,34.70
2018-09-10T07:58:44.000Z,33.82
2018-09-10T08:01:12.843Z,33.43
2018-09-10T08:03:41.402Z,33.21
2018-09-10T08:06:09.940Z,32.90
2018-09-10T08:08:38.628Z,33.24
2018-09-10T08:11:07.288Z,32.42
2018-09-10T08:13:35.860Z,32.26
2018-09-10T08:16:04.549Z,31.88
2018-09-10T08:18:33.116Z,31.82
2018-09-10T08:21:01.691Z,31.58
2018-09-10T08:23:30.507Z,31.47
2018-09-10T08:25:59.077Z,30.52
2018-09-10T08:28:27.615Z,29.55
2018-09-10T08:30:56.312Z,29.63
2018-09-10T08:33:24.891Z,28.44
2018-09-10T08:35:53.459Z,28.75
2018-09-10T08:38:22.134Z,28.73
2018-09-10T08:40:50.675Z,28.62
2018-09-10T08:43:19.284Z,27.81
2018-09-10T08:45:48.376Z,28.51
2018-09-10T08:48:16.963Z,28.87
2018-09-10T08:50:45.527Z,28.49
2018-09-10T08:53:14.186Z,28.02
2018-09-10T08:55:42.955Z,28.81
2018-09-10T08:58:11.314Z,28.49
2018-09-10T09:00:39.963Z,28.39
2018-09-10T09:03:08.695Z,28.72
2018-09-10T09:05:37.655Z,27.67
2018-09-10T09:08:06.400Z,27.03
2018-09-10T09:10:34.939Z,26.79
2018-09-10T09:13:03.507Z,26.22
2018-09-10T09:15:32.083Z,25.37
2018-09-10T09:18:00.639Z,24.57
2018-09-10T09:20:29.220Z,23.56
2018-09-10T09:22:57.882Z,23.88
2018-09-10T09:25:26.452Z,23.25
2018-09-10T09:27:54.995Z,23.97
2018-09-10T09:30:23.689Z,23.82
2018-09-10T09:32:52.211Z,23.14
2018-09-10T09:35:25.050Z,22.16
2018-09-10T09:37:58.631Z,22.29
2018-09-10T09:40:32.999Z,22.75
2018-09-10T09:43:06.951Z,21.76
2018-09-10T09:45:41.128Z,22.34
2018-09-10T09:48:09.685Z,22.74
2018-09-10T09:50:38.324Z,24.84
2018-09-10T09:53:06.943Z,25.58
2018-09-10T09:55:35.503Z,25.31
2018-09-10T09:58:04.067Z,22.84
2018-09-10T10:00:38.375Z,23.16
2018-09-10T10:03:12.060Z,22.41
2018-09-10T10:05:40.730Z,21.39
2018-09-10T10:08:09.275Z,21.37
2018-09-10T10:10:37.874Z,20.70
2018-09-10T10:13:06.460Z,19.64
2018-09-10T10:15:35.011Z,21.23
2018-09-10T10:18:03.590Z,20.04
2018-09-10T10:20:32.207Z,20.53
2018-09-10T10:23:00.772Z,21.52
2018-09-10T10:25:29.479Z,21.81
2018-09-10T10:27:58.063Z,21.83
2018-09-10T10:30:26.615Z,19.41
2018-09-10T10:32:55.164Z,20.04
2018-09-10T10:35:24.084Z,19.80
2018-09-10T10:37:52.670Z,18.11
2018-09-10T10:40:21.219Z,17.58
2018-09-10T10:42:49.783Z,17.07
2018-09-10T10:45:18.330Z,16.27
2018-09-10T10:47:46.876Z,16.00
2018-09-10T10:50:15.543Z,16.64
2018-09-10T10:52:44.087Z,16.60
2018-09-10T10:55:12.683Z,16.53
2018-09-10T10:57:41.976Z,16.59
2018-09-10T11:00:10.556Z,16.94
2018-09-10T11:02:39.119Z,17.93
2018-09-10T11:05:07.927Z,18.92
2018-09-10T11:07:36.467Z,18.57
2018-09-10T11:10:05.787Z,19.21
2018-09-10T11:12:34.376Z,19.13
2018-09-10T11:15:02.942Z,20.48
2018-09-10T11:17:31.967Z,19.60
2018-09-10T11:20:00.551Z,18.41
2018-09-10T11:22:29.159Z,17.13
2018-09-10T11:24:57.652Z,16.11
2018-09-10T11:27:26.259Z,15.06
2018-09-10T11:29:54.996Z,15.23
2018-09-10T11:32:23.618Z,15.41
2018-09-10T11:34:52.388Z,14.64
2018-09-10T11:37:20.943Z,15.15
2018-09-10T11:39:49.564Z,16.38
2018-09-10T11:42:18.285Z,16.90
2018-09-10T11:44:46.832Z,18.71
2018-09-10T11:47:15.391Z,19.29
2018-09-10T11:49:44.064Z,20.16
2018-09-10T11:52:12.611Z,19.89
2018-09-10T11:54:41.152Z,19.80
2018-09-10T11:57:09.723Z,18.45
2018-09-10T11:59:38.271Z,17.99
2018-09-10T12:02:08.477Z,18.29
2018-09-10T12:04:37.594Z,19.07
2018-09-10T12:07:06.607Z,19.45
2018-09-10T12:09:35.152Z,20.10
2018-09-10T12:12:03.791Z,20.55
2018-09-10T12:14:32.327Z,20.54
2018-09-10T12:17:00.991Z,21.21
2018-09-10T12:19:29.664Z,21.09
2018-09-10T12:21:58.232Z,21.78
2018-09-10T12:24:26.803Z,21.54
2018-09-10T12:26:55.686Z,21.98
2018-09-10T12:29:24.222Z,22.24
2018-09-10T12:31:52.819Z,22.00
2018-09-10T12:34:21.428Z,22.96
2018-09-10T12:36:56.079Z,23.18
2018-09-10T12:39:24.698Z,22.45
2018-09-10T12:41:53.214Z,22.15
2018-09-10T12:44:21.800Z,22.14
2018-09-10T12:46:50.475Z,22.22
2018-09-10T12:49:19.035Z,22.42
2018-09-10T12:51:47.626Z,22.32
2018-09-10T12:54:16.221Z,22.15
2018-09-10T12:56:44.779Z,22.47
2018-09-10T12:59:13.346Z,22.43
2018-09-10T13:01:41.926Z,22.17
2018-09-10T13:04:10.510Z,22.47
2018-09-10T13:06:39.072Z,22.86
2018-09-10T13:09:08.047Z,22.80
2018-09-10T13:11:36.976Z,22.20
2018-09-10T13:14:05.532Z,23.16
2018-09-10T13:16:34.140Z,23.08
2018-09-10T13:19:02.703Z,22.63
2018-09-10T13:21:31.264Z,22.79
2018-09-10T13:24:00.195Z,22.57
2018-09-10T13:26:29.706Z,23.67
2018-09-10T13:28:58.278Z,22.79
2018-09-10T13:31:27.284Z,23.02
2018-09-10T13:33:55.845Z,23.19
2018-09-10T13:36:24.468Z,22.75
2018-09-10T13:38:53.145Z,22.82
2018-09-10T13:41:21.696Z,23.11
2018-09-10T13:43:50.260Z,22.74
2018-09-10T13:46:18.856Z,22.95
2018-09-10T13:48:47.441Z,23.51
2018-09-10T13:51:15.999Z,22.85
2018-09-10T13:53:44.683Z,23.77
2018-09-10T13:56:13.276Z,23.02
2018-09-10T13:58:41.832Z,23.05
2018-09-10T14:01:10.611Z,23.42
2018-09-10T14:03:39.163Z,22.89
2018-09-10T14:06:07.730Z,23.16
2018-09-10T14:08:36.408Z,23.10
2018-09-10T14:11:05.003Z,23.42
2018-09-10T14:13:33.619Z,23.48
2018-09-10T14:16:02.287Z,23.20
2018-09-10T14:18:30.835Z,22.50
2018-09-10T14:20:59.427Z,22.63
2018-09-10T14:23:28.112Z,22.22
2018-09-10T14:25:56.723Z,23.06
2018-09-10T14:28:25.351Z,23.27
2018-09-10T14:30:53.965Z,22.70
2018-09-10T14:33:22.532Z,23.29
2018-09-10T14:35:51.093Z,23.62
2018-09-10T14:38:19.676Z,24.00
2018-09-10T14:40:48.252Z,23.20
2018-09-10T14:43:16.809Z,22.59
2018-09-10T14:45:45.415Z,23.87
2018-09-10T14:48:13.974Z,23.67
2018-09-10T14:50:42.536Z,23.56
2018-09-10T14:53:11.207Z,23.72
2018-09-10T14:55:39.759Z,22.76
2018-09-10T14:58:08.311Z,23.72
2018-09-10T15:00:36.900Z,22.00
2018-09-10T15:03:05.504Z,22.44
2018-09-10T15:05:34.056Z,22.89
2018-09-10T15:08:02.720Z,22.77
2018-09-10T15:10:31.289Z,22.60
2018-09-10T15:12:59.848Z,23.74
2018-09-10T15:15:28.508Z,23.44
2018-09-10T15:17:57.068Z,23.73
2018-09-10T15:20:25.631Z,24.12
2018-09-10T15:22:54.251Z,22.98
2018-09-10T15:25:22.824Z,21.54
2018-09-10T15:27:51.404Z,20.98
2018-09-10T15:30:20.007Z,21.69
2018-09-10T15:32:48.941Z,22.33
2018-09-10T15:35:17.540Z,22.45
2018-09-10T15:37:46.395Z,22.28
2018-09-10T15:40:15.064Z,22.42
2018-09-10T15:42:43.645Z,21.42
2018-09-10T15:45:12.285Z,20.83
2018-09-10T15:47:40.858Z,21.16
2018-09-10T15:50:09.484Z,21.87
2018-09-10T15:52:38.197Z,21.47
2018-09-10T15:55:06.795Z,21.15
2018-09-10T15:57:35.407Z,21.63
2018-09-10T16:00:04.557Z,22.88
2018-09-10T16:02:33.080Z,22.34
2018-09-10T16:05:01.651Z,22.13
2018-09-10T16:07:30.249Z,21.97
2018-09-10T16:09:59.059Z,21.45
2018-09-10T16:12:27.660Z,22.33
2018-09-10T16:14:56.309Z,22.63
2018-09-10T16:17:24.896Z,22.62
2018-09-10T16:19:53.467Z,22.00
2018-09-10T16:22:22.576Z,21.85
2018-09-10T16:24:51.131Z,22.29
2018-09-10T16:27:19.747Z,22.60
2018-09-10T16:29:48.452Z,22.96
2018-09-10T16:32:17.017Z,23.06
2018-09-10T16:34:45.631Z,23.16
2018-09-10T16:37:14.226Z,23.09
2018-09-10T16:39:42.816Z,23.62
2018-09-10T16:42:11.487Z,23.78
2018-09-10T16:44:40.091Z,23.38
2018-09-10T16:47:08.671Z,23.61
2018-09-10T16:49:37.259Z,22.77
2018-09-10T16:52:05.951Z,23.90
2018-09-10T16:54:34.754Z,23.39
2018-09-10T16:57:03.247Z,23.02
2018-09-10T16:59:31.943Z,23.32
2018-09-10T17:02:00.520Z,24.19
2018-09-10T17:04:29.091Z,24.65
2018-09-10T17:06:57.792Z,25.34
2018-09-10T17:09:26.371Z,24.99
2018-09-10T17:11:54.941Z,25.28
2018-09-10T17:14:23.635Z,25.64
2018-09-10T17:16:52.206Z,25.11
2018-09-10T17:19:20.780Z,25.85
2018-09-10T17:21:49.479Z,26.52
2018-09-10T17:24:18.044Z,26.48
2018-09-10T17:26:46.651Z,26.94
2018-09-10T17:29:15.663Z,27.15
2018-09-10T17:31:44.251Z,26.73
2018-09-10T17:34:12.915Z,27.38
2018-09-10T17:36:41.816Z,27.23
2018-09-10T17:39:10.470Z,27.59
2018-09-10T17:41:39.019Z,27.02
2018-09-10T17:44:07.788Z,27.46
2018-09-10T17:46:36.370Z,26.95
2018-09-10T17:49:04.971Z,30.54
2018-09-10T17:51:34.052Z,30.48
2018-09-10T17:54:02.642Z,29.91
2018-09-10T17:56:31.262Z,29.61
2018-09-10T17:58:59.907Z,30.18
2018-09-10T18:01:28.523Z,31.25
2018-09-10T18:03:57.107Z,31.22
2018-09-10T18:06:26.063Z,31.08
2018-09-10T18:08:54.632Z,31.63
2018-09-10T18:11:23.200Z,32.24
2018-09-10T18:13:52.043Z,32.09
2018-09-10T18:16:20.635Z,32.87
2018-09-10T18:18:49.237Z,32.64
2018-09-10T18:21:17.855Z,33.08
2018-09-10T18:23:46.428Z,34.11
2018-09-10T18:26:15.007Z,33.92
2018-09-10T18:28:43.624Z,34.08
2018-09-10T18:31:12.211Z,35.25
2018-09-10T18:33:40.795Z,35.49
2018-09-10T18:36:09.400Z,35.47
2018-09-10T18:38:37.972Z,35.56
2018-09-10T18:41:06.578Z,35.37
2018-09-10T18:43:35.339Z,35.63
2018-09-10T18:46:04.048Z,35.93
2018-09-10T18:48:32.654Z,36.76
2018-09-10T18:51:01.347Z,36.54
2018-09-10T18:53:29.929Z,35.99
2018-09-10T18:55:58.516Z,36.31
2018-09-10T18:58:27.575Z,36.66
2018-09-10T19:00:56.287Z,37.03
2018-09-10T19:03:24.841Z,37.18
2018-09-10T19:05:53.539Z,36.74
2018-09-10T19:08:22.142Z,37.28
2018-09-10T19:10:50.727Z,36.88
2018-09-10T19:13:19.573Z,37.00
2018-09-10T19:15:48.166Z,37.30
2018-09-10T19:18:17.031Z,37.46
2018-09-10T19:20:45.644Z,37.07
2018-09-10T19:23:14.229Z,36.98
2018-09-10T19:25:42.840Z,37.29
2018-09-10T19:28:11.532Z,37.41
2018-09-10T19:30:40.112Z,38.13
2018-09-10T19:33:08.726Z,38.34
2018-09-10T19:35:37.403Z,39.44
2018-09-10T19:38:05.986Z,39.45
2018-09-10T19:40:34.574Z,40.03
2018-09-10T19:43:03.267Z,40.35
2018-09-10T19:45:31.848Z,40.40
2018-09-10T19:48:00.440Z,40.98
2018-09-10T19:50:29.456Z,41.26
2018-09-10T19:52:58.036Z,41.38
2018-09-10T19:55:26.650Z,41.58
2018-09-10T19:57:55.476Z,41.97
2018-09-10T20:00:24.072Z,41.97
2018-09-10T20:02:52.648Z,42.68
2018-09-10T20:05:21.625Z,43.21
2018-09-10T20:07:50.212Z,43.23
2018-09-10T20:10:18.796Z,43.04
2018-09-10T20:12:47.862Z,43.17
2018-09-10T20:15:16.524Z,43.53
2018-09-10T20:17:45.061Z,44.04
2018-09-10T20:20:13.772Z,44.11
2018-09-10T20:22:42.327Z,44.49
2018-09-10T20:25:10.908Z,44.20
2018-09-10T20:27:39.620Z,43.92
2018-09-10T20:30:08.331Z,43.99
2018-09-10T20:32:36.904Z,44.30
2018-09-10T20:35:05.983Z,44.22
2018-09-10T20:37:34.583Z,43.20
2018-09-10T20:40:03.279Z,42.86
2018-09-10T20:42:31.975Z,42.79
2018-09-10T20:45:00.559Z,42.98
2018-09-10T20:47:29.147Z,43.16
2018-09-10T20:49:57.818Z,42.45
2018-09-10T20:52:26.441Z,42.80
2018-09-10T20:54:55.007Z,42.14
2018-09-10T20:57:23.608Z,42.23
2018-09-10T20:59:52.176Z,42.71
2018-09-10T21:02:21.048Z,43.26
2018-09-10T21:04:49.643Z,42.98
2018-09-10T21:07:18.208Z,42.96
2018-09-10T21:09:46.788Z,43.03
2018-09-10T21:12:15.516Z,43.77
2018-09-10T21:14:44.075Z,43.87
2018-09-10T21:17:12.648Z,43.83
2018-09-10T21:19:41.562Z,42.81
2018-09-10T21:22:10.151Z,43.37
2018-09-10T21:24:38.748Z,43.02
2018-09-10T21:27:07.448Z,43.42
2018-09-10T21:29:36.031Z,43.52
2018-09-10T21:32:04.609Z,43.84
2018-09-10T21:34:33.259Z,42.99
2018-09-10T21:37:01.900Z,43.71
2018-09-10T21:39:30.474Z,43.44
2018-09-10T21:41:59.167Z,43.78
2018-09-10T21:44:27.719Z,44.69
2018-09-10T21:46:56.314Z,44.44
2018-09-10T21:49:25.191Z,45.08
2018-09-10T21:51:53.844Z,45.31
2018-09-10T21:54:22.507Z,44.75
2018-09-10T21:56:51.595Z,44.50
2018-09-10T21:59:20.518Z,44.55
2018-09-10T22:01:49.083Z,44.81
2018-09-10T22:04:17.779Z,44.78
2018-09-10T22:06:46.331Z,44.77
2018-09-10T22:09:14.891Z,44.55
2018-09-10T22:11:48.728Z,45.06
2018-09-10T22:14:17.338Z,44.99
2018-09-10T22:16:45.899Z,45.39
2018-09-10T22:19:14.491Z,45.28
2018-09-10T22:21:43.504Z,45.43
2018-09-10T22:24:12.057Z,44.81
2018-09-10T22:26:40.776Z,46.18
2018-09-10T22:29:09.355Z,45.30
2018-09-10T22:31:37.911Z,45.97
2018-09-10T22:34:07.047Z,45.38
2018-09-10T22:36:35.632Z,45.80
2018-09-10T22:39:04.972Z,45.50
2018-09-10T22:41:33.574Z,46.10
2018-09-10T22:44:02.140Z,45.77
2018-09-10T22:46:30.811Z,46.12
2018-09-10T22:48:59.351Z,46.37
2018-09-10T22:51:27.896Z,46.56
2018-09-10T22:53:56.872Z,46.99
2018-09-10T22:56:25.424Z,46.78
2018-09-10T22:58:54.051Z,47.20
2018-09-10T23:01:22.772Z,47.83
2018-09-10T23:03:51.800Z,47.95
2018-09-10T23:06:20.359Z,47.80
2018-09-10T23:08:49.485Z,47.82
2018-09-10T23:11:18.027Z,46.83
2018-09-10T23:13:46.603Z,47.80
2018-09-10T23:16:15.172Z,48.01
2018-09-10T23:18:43.825Z,47.78
2018-09-10T23:21:12.374Z,47.79
2018-09-10T23:23:41.115Z,48.04
2018-09-10T23:26:09.744Z,48.13
2018-09-10T23:28:38.380Z,48.05
2018-09-10T23:31:08.211Z,48.38
2018-09-10T23:33:37.267Z,48.67
2018-09-10T23:36:05.815Z,48.96
2018-09-10T23:38:34.463Z,49.38
2018-09-10T23:41:02.995Z,49.87
2018-09-10T23:43:31.539Z,50.45
2018-09-10T23:46:00.367Z,50.60
2018-09-10T23:48:28.915Z,50.72
2018-09-10T23:50:57.575Z,51.15
2018-09-10T23:53:26.583Z,51.26
2018-09-10T23:55:55.583Z,51.40
2018-09-10T23:58:24.123Z,51.32
